createdAt,value
2022-08-17T00:01:52.146Z,76.35
2022-08-17T00:04:21.275Z,77.68
2022-08-17T00:06:49.686Z,77.76
2022-08-17T00:09:19.371Z,77.42
2022-08-17T00:12:35.081Z,77.42
2022-08-17T00:14:36.446Z,77.87
2022-08-17T00:17:07.272Z,77.33
2022-08-17T00:19:34.613Z,77.52
2022-08-17T00:22:33.253Z,78.30
2022-08-17T00:24:50.830Z,78.29
2022-08-17T00:27:19.552Z,78.43
2022-08-17T00:29:46.967Z,78.18
2022-08-17T00:33:10.957Z,78.54
2022-08-17T00:35:06.818Z,78.52
2022-08-17T00:37:34.563Z,78.19
2022-08-17T00:40:02.123Z,78.26
2022-08-17T00:42:31.311Z,78.19
2022-08-17T00:44:59.542Z,78.41
2022-08-17T00:47:26.857Z,78.91
2022-08-17T00:49:54.316Z,78.36
2022-08-17T00:52:28.792Z,78.28
2022-08-17T00:54:57.093Z,78.25
2022-08-17T00:57:36.730Z,78.30
2022-08-17T01:00:16.007Z,78.01
2022-08-17T01:02:47.263Z,78.24
2022-08-17T01:05:18.428Z,78.41
2022-08-17T01:07:48.036Z,77.68
2022-08-17T01:10:59.966Z,77.46
2022-08-17T01:13:04.181Z,76.42
2022-08-17T01:15:33.711Z,78.55
2022-08-17T01:18:01.034Z,79.61
2022-08-17T01:20:29.101Z,79.33
2022-08-17T01:22:56.697Z,78.71
2022-08-17T01:25:24.665Z,78.07
2022-08-17T01:27:52.627Z,79.32
2022-08-17T01:30:56.523Z,79.20
2022-08-17T01:33:11.552Z,79.42
2022-08-17T01:35:40.006Z,79.66
2022-08-17T01:38:09.631Z,79.02
2022-08-17T01:40:43.329Z,78.68
2022-08-17T01:43:16.316Z,78.00
2022-08-17T01:45:46.560Z,78.39
2022-08-17T01:48:15.596Z,78.52
2022-08-17T01:50:44.680Z,79.38
2022-08-17T01:53:25.294Z,77.51
2022-08-17T01:55:57.920Z,77.89
2022-08-17T01:58:25.425Z,78.40
2022-08-17T02:01:00.434Z,78.68
2022-08-17T02:03:30.449Z,78.57
2022-08-17T02:05:57.954Z,78.59
2022-08-17T02:08:37.240Z,77.95
2022-08-17T02:11:11.244Z,78.56
2022-08-17T02:13:39.795Z,78.21
2022-08-17T02:16:08.009Z,77.97
2022-08-17T02:18:35.373Z,77.53
2022-08-17T02:21:03.493Z,77.69
2022-08-17T02:23:33.553Z,77.55
2022-08-17T02:26:01.487Z,79.03
2022-08-17T02:28:29.708Z,79.90
2022-08-17T02:31:02.155Z,79.36
2022-08-17T02:33:43.214Z,79.41
2022-08-17T02:36:13.342Z,79.63
2022-08-17T02:38:42.124Z,79.10
2022-08-17T02:41:09.862Z,79.05
2022-08-17T02:43:37.678Z,80.40
2022-08-17T02:46:05.045Z,79.63
2022-08-17T02:48:32.368Z,79.06
2022-08-17T02:51:01.114Z,78.48
2022-08-17T02:53:35.592Z,79.01
2022-08-17T02:56:04.506Z,79.64
2022-08-17T02:58:35.836Z,79.02
2022-08-17T03:01:09.047Z,78.91
2022-08-17T03:03:37.662Z,79.32
2022-08-17T03:06:06.325Z,80.02
2022-08-17T03:08:34.347Z,81.21
2022-08-17T03:11:01.889Z,80.88
2022-08-17T03:13:31.065Z,81.32
2022-08-17T03:15:59.131Z,81.59
2022-08-17T03:18:28.196Z,83.05
2022-08-17T03:21:00.042Z,82.71
2022-08-17T03:23:29.560Z,81.94
2022-08-17T03:25:59.026Z,81.75
2022-08-17T03:28:27.603Z,81.69
2022-08-17T03:30:55.091Z,82.43
2022-08-17T03:33:23.181Z,82.34
2022-08-17T03:35:50.612Z,83.42
2022-08-17T03:38:18.592Z,82.96
2022-08-17T03:40:56.792Z,83.01
2022-08-17T03:43:30.252Z,83.03
2022-08-17T03:46:27.076Z,82.76
2022-08-17T03:49:26.966Z,83.75
2022-08-17T03:52:14.227Z,82.83
2022-08-17T03:55:01.588Z,82.69
2022-08-17T03:57:30.515Z,82.66
2022-08-17T03:59:58.456Z,83.66
2022-08-17T04:02:32.079Z,84.10
2022-08-17T04:05:00.657Z,82.85
2022-08-17T04:07:30.703Z,82.87
2022-08-17T04:09:59.625Z,83.14
2022-08-17T04:12:31.254Z,83.20
2022-08-17T04:14:59.309Z,83.56
2022-08-17T04:17:29.374Z,84.34
2022-08-17T04:19:57.254Z,84.15
2022-08-17T04:22:32.680Z,85.03
2022-08-17T04:25:15.021Z,84.45
2022-08-17T04:27:42.802Z,85.15
2022-08-17T04:30:11.116Z,84.45
2022-08-17T04:33:04.973Z,84.58
2022-08-17T04:35:50.243Z,83.44
2022-08-17T04:38:20.159Z,84.08
2022-08-17T04:41:07.276Z,83.19
2022-08-17T04:43:36.592Z,81.90
2022-08-17T04:46:07.859Z,82.26
2022-08-17T04:48:38.836Z,82.67
2022-08-17T04:51:16.712Z,82.59
2022-08-17T04:53:54.290Z,83.22
2022-08-17T04:56:26.022Z,83.08
2022-08-17T04:58:56.214Z,82.72
2022-08-17T05:01:26.348Z,82.81
2022-08-17T05:03:56.674Z,82.93
2022-08-17T05:06:24.613Z,81.44
2022-08-17T05:08:52.369Z,82.63
2022-08-17T05:11:20.086Z,82.55
2022-08-17T05:13:50.578Z,86.47
2022-08-17T05:16:19.740Z,87.52
2022-08-17T05:18:47.076Z,85.65
2022-08-17T05:21:15.844Z,85.15
2022-08-17T05:23:44.345Z,85.01
2022-08-17T05:26:25.749Z,84.36
2022-08-17T05:28:57.092Z,84.41
2022-08-17T05:31:28.821Z,84.37
2022-08-17T05:33:56.466Z,84.83
2022-08-17T05:36:42.079Z,84.12
2022-08-17T05:39:15.790Z,83.10
2022-08-17T05:41:46.939Z,83.33
2022-08-17T05:44:14.715Z,82.94
2022-08-17T05:46:47.826Z,83.21
2022-08-17T05:49:18.348Z,82.56
2022-08-17T05:52:18.873Z,80.91
2022-08-17T05:55:04.671Z,80.57
2022-08-17T05:57:53.318Z,80.39
2022-08-17T06:00:31.168Z,80.17
2022-08-17T06:03:14.015Z,78.30
2022-08-17T06:05:53.259Z,76.92
2022-08-17T06:08:34.343Z,76.81
2022-08-17T06:11:43.656Z,76.46
2022-08-17T06:14:30.293Z,76.11
2022-08-17T06:17:04.802Z,76.82
2022-08-17T06:19:41.486Z,75.59
2022-08-17T06:22:13.779Z,77.65
2022-08-17T06:24:48.316Z,76.61
2022-08-17T06:27:40.892Z,75.21
2022-08-17T06:30:15.488Z,74.23
2022-08-17T06:32:46.325Z,74.48
2022-08-17T06:35:31.791Z,73.91
2022-08-17T06:38:37.978Z,73.41
2022-08-17T06:41:15.395Z,73.49
2022-08-17T06:44:01.491Z,73.96
2022-08-17T06:46:37.386Z,72.40
2022-08-17T06:49:28.759Z,71.74
2022-08-17T06:52:46.106Z,71.48
2022-08-17T06:55:18.087Z,70.77
2022-08-17T06:57:52.817Z,70.60
2022-08-17T07:00:24.157Z,69.27
2022-08-17T07:03:01.165Z,71.17
2022-08-17T07:05:54.042Z,68.54
2022-08-17T07:08:29.698Z,69.07
2022-08-17T07:11:03.781Z,64.41
2022-08-17T07:14:03.784Z,62.29
2022-08-17T07:17:03.072Z,59.42
2022-08-17T07:19:33.137Z,57.50
2022-08-17T07:22:18.720Z,58.01
2022-08-17T07:24:54.073Z,57.10
2022-08-17T07:27:38.802Z,57.89
2022-08-17T07:30:23.956Z,56.32
2022-08-17T07:32:54.803Z,55.97
2022-08-17T07:35:37.579Z,54.74
2022-08-17T07:38:25.186Z,57.26
2022-08-17T07:40:58.126Z,54.49
2022-08-17T07:43:29.479Z,54.65
2022-08-17T07:46:17.853Z,53.26
2022-08-17T07:48:52.773Z,52.80
2022-08-17T07:51:39.219Z,53.60
2022-08-17T07:54:15.843Z,52.55
2022-08-17T07:56:53.903Z,50.21
2022-08-17T07:59:33.417Z,51.33
2022-08-17T08:02:31.813Z,50.98
2022-08-17T08:05:09.028Z,51.00
2022-08-17T08:07:55.147Z,50.51
2022-08-17T08:10:31.287Z,48.81
2022-08-17T08:13:13.022Z,48.41
2022-08-17T08:15:54.134Z,49.12
2022-08-17T08:18:54.639Z,47.52
2022-08-17T08:21:44.755Z,48.40
2022-08-17T08:24:59.493Z,46.67
2022-08-17T08:27:36.717Z,47.19
2022-08-17T08:30:09.991Z,46.51
2022-08-17T08:32:54.241Z,45.42
2022-08-17T08:35:44.550Z,45.11
2022-08-17T08:38:34.659Z,45.68
2022-08-17T08:41:08.541Z,46.71
2022-08-17T08:43:52.777Z,46.46
2022-08-17T08:47:00.009Z,42.25
2022-08-17T08:50:03.378Z,43.09
2022-08-17T08:53:03.883Z,42.62
2022-08-17T08:55:55.246Z,42.23
2022-08-17T08:58:41.715Z,39.05
2022-08-17T09:01:38.285Z,41.07
2022-08-17T09:04:24.807Z,39.51
2022-08-17T09:07:08.778Z,39.81
2022-08-17T09:09:50.987Z,37.15
2022-08-17T09:12:33.464Z,39.02
2022-08-17T09:15:13.439Z,38.86
2022-08-17T09:18:59.792Z,39.74
2022-08-17T09:21:18.244Z,37.99
2022-08-17T09:23:52.266Z,36.79
2022-08-17T09:26:26.008Z,36.64
2022-08-17T09:29:01.657Z,37.39
2022-08-17T09:31:47.093Z,36.14
2022-08-17T09:34:24.920Z,36.44
2022-08-17T09:37:30.035Z,36.86
2022-08-17T09:40:03.328Z,37.35
2022-08-17T09:42:38.151Z,36.51
2022-08-17T09:45:31.657Z,35.47
2022-08-17T09:48:08.160Z,36.27
2022-08-17T09:51:03.139Z,35.99
2022-08-17T09:53:36.111Z,37.75
2022-08-17T09:56:32.014Z,35.42
2022-08-17T09:59:17.617Z,37.47
2022-08-17T10:02:30.427Z,36.81
2022-08-17T10:05:15.903Z,37.48
2022-08-17T10:07:57.579Z,35.00
2022-08-17T10:11:00.646Z,36.64
2022-08-17T10:13:31.429Z,36.21
2022-08-17T10:16:04.625Z,35.17
2022-08-17T10:19:21.638Z,34.39
2022-08-17T10:22:14.913Z,33.17
2022-08-17T10:25:24.837Z,34.58
2022-08-17T10:28:04.894Z,35.24
2022-08-17T10:30:37.396Z,35.66
2022-08-17T10:33:26.123Z,34.79
2022-08-17T10:36:10.549Z,32.33
2022-08-17T10:38:46.940Z,33.18
2022-08-17T10:41:21.506Z,32.06
2022-08-17T10:44:37.374Z,31.36
2022-08-17T10:47:08.232Z,33.86
2022-08-17T10:49:38.729Z,33.88
2022-08-17T10:52:30.693Z,33.88
2022-08-17T10:55:01.316Z,32.88
2022-08-17T10:57:34.533Z,33.28
2022-08-17T11:00:26.983Z,32.74
2022-08-17T11:02:57.667Z,33.24
2022-08-17T11:05:50.540Z,31.23
2022-08-17T11:09:04.277Z,28.93
2022-08-17T11:11:47.473Z,31.29
2022-08-17T11:14:36.871Z,31.20
2022-08-17T11:17:43.425Z,31.41
2022-08-17T11:20:32.281Z,30.36
2022-08-17T11:23:37.686Z,30.92
2022-08-17T11:26:38.891Z,31.45
2022-08-17T11:29:18.478Z,32.08
2022-08-17T11:32:03.188Z,30.96
2022-08-17T11:34:32.343Z,31.14
2022-08-17T11:37:19.391Z,29.25
2022-08-17T11:40:22.089Z,30.86
2022-08-17T11:43:01.427Z,30.99
2022-08-17T11:45:41.369Z,27.92
2022-08-17T11:48:46.494Z,29.94
2022-08-17T11:51:35.433Z,27.11
2022-08-17T11:54:32.440Z,27.65
2022-08-17T11:57:00.708Z,28.50
2022-08-17T11:59:34.068Z,27.60
2022-08-17T12:02:05.120Z,26.40
2022-08-17T12:04:35.936Z,29.36
2022-08-17T12:07:21.072Z,32.27
2022-08-17T12:09:51.168Z,33.65
2022-08-17T12:12:36.114Z,34.19
2022-08-17T12:15:12.058Z,34.95
2022-08-17T12:17:42.649Z,35.80
2022-08-17T12:20:28.023Z,34.01
2022-08-17T12:23:17.192Z,33.97
2022-08-17T12:25:52.388Z,35.29
2022-08-17T12:28:32.411Z,34.03
2022-08-17T12:31:03.734Z,33.30
2022-08-17T12:33:31.326Z,32.66
2022-08-17T12:36:08.866Z,33.73
2022-08-17T12:38:38.344Z,32.96
2022-08-17T12:41:28.510Z,32.10
2022-08-17T12:44:12.457Z,33.03
2022-08-17T12:47:21.058Z,33.87
2022-08-17T12:49:53.174Z,32.43
2022-08-17T12:52:27.695Z,34.05
2022-08-17T12:55:05.851Z,32.49
2022-08-17T12:57:39.762Z,33.43
2022-08-17T13:00:20.166Z,32.88
2022-08-17T13:03:12.734Z,33.45
2022-08-17T13:06:06.450Z,34.97
2022-08-17T13:08:38.274Z,34.70
2022-08-17T13:11:09.598Z,34.25
2022-08-17T13:13:39.885Z,34.82
2022-08-17T13:16:20.768Z,35.64
2022-08-17T13:19:04.346Z,34.11
2022-08-17T13:21:33.806Z,34.27
2022-08-17T13:24:18.547Z,33.66
2022-08-17T13:26:50.974Z,33.77
2022-08-17T13:29:25.832Z,32.07
2022-08-17T13:32:15.243Z,31.60
2022-08-17T13:35:14.105Z,32.75
2022-08-17T13:37:41.422Z,32.94
2022-08-17T13:40:10.284Z,31.46
2022-08-17T13:42:51.458Z,32.14
2022-08-17T13:45:36.623Z,32.49
2022-08-17T13:48:13.953Z,31.33
2022-08-17T13:51:04.740Z,32.64
2022-08-17T13:53:38.003Z,30.86
2022-08-17T13:56:41.743Z,31.32
2022-08-17T13:59:11.602Z,31.84
2022-08-17T14:01:49.647Z,31.59
2022-08-17T14:04:30.172Z,30.81
2022-08-17T14:06:59.372Z,31.54
2022-08-17T14:09:36.981Z,31.39
2022-08-17T14:12:10.774Z,30.50
2022-08-17T14:14:39.669Z,30.53
2022-08-17T14:17:07.862Z,31.37
2022-08-17T14:19:36.565Z,30.67
2022-08-17T14:22:09.021Z,29.43
2022-08-17T14:24:44.624Z,30.76
2022-08-17T14:27:12.775Z,31.30
2022-08-17T14:29:41.464Z,30.43
2022-08-17T14:32:20.387Z,30.24
2022-08-17T14:34:49.791Z,30.40
2022-08-17T14:37:18.982Z,29.10
2022-08-17T14:39:46.686Z,28.71
2022-08-17T14:42:15.699Z,28.35
2022-08-17T14:44:43.206Z,29.61
2022-08-17T14:47:16.003Z,29.72
2022-08-17T14:49:43.918Z,28.80
2022-08-17T14:52:21.017Z,27.91
2022-08-17T14:54:53.047Z,28.88
2022-08-17T14:57:33.354Z,26.94
2022-08-17T15:00:03.059Z,26.10
2022-08-17T15:02:31.255Z,25.22
2022-08-17T15:05:04.902Z,24.08
2022-08-17T15:07:32.680Z,25.97
2022-08-17T15:10:02.560Z,24.80
2022-08-17T15:12:33.731Z,24.36
2022-08-17T15:15:06.636Z,24.34
2022-08-17T15:17:44.961Z,24.90
2022-08-17T15:20:19.868Z,24.30
2022-08-17T15:22:55.539Z,23.13
2022-08-17T15:25:26.388Z,23.63
2022-08-17T15:27:56.011Z,22.29
2022-08-17T15:30:25.921Z,21.85
2022-08-17T15:32:55.043Z,22.48
2022-08-17T15:35:27.395Z,22.72
2022-08-17T15:37:58.756Z,23.19
2022-08-17T15:40:36.650Z,22.98
2022-08-17T15:43:22.051Z,23.45
2022-08-17T15:46:05.153Z,22.71
2022-08-17T15:48:42.100Z,22.85
2022-08-17T15:51:20.918Z,23.03
2022-08-17T15:53:51.994Z,23.15
2022-08-17T15:56:19.493Z,22.67
2022-08-17T15:58:48.704Z,24.63
2022-08-17T16:02:17.118Z,22.94
2022-08-17T16:04:30.666Z,23.93
2022-08-17T16:06:57.601Z,23.72
2022-08-17T16:09:25.208Z,25.90
2022-08-17T16:11:55.670Z,25.77
2022-08-17T16:14:34.252Z,27.61
2022-08-17T16:17:05.351Z,26.95
2022-08-17T16:19:53.012Z,27.99
2022-08-17T16:22:33.211Z,29.05
2022-08-17T16:25:07.936Z,29.68
2022-08-17T16:27:35.751Z,32.31
2022-08-17T16:30:05.809Z,32.55
2022-08-17T16:32:33.263Z,32.88
2022-08-17T16:35:03.408Z,32.85
2022-08-17T16:37:31.147Z,32.88
2022-08-17T16:40:02.147Z,32.21
2022-08-17T16:42:32.694Z,31.50
2022-08-17T16:45:08.948Z,32.11
2022-08-17T16:47:37.977Z,32.44
2022-08-17T16:50:07.246Z,33.22
2022-08-17T16:52:34.814Z,37.14
2022-08-17T16:55:04.294Z,38.90
2022-08-17T16:57:32.187Z,40.82
2022-08-17T16:59:59.587Z,42.00
2022-08-17T17:02:33.773Z,41.47
2022-08-17T17:05:45.327Z,42.43
2022-08-17T17:08:33.474Z,43.24
2022-08-17T17:11:09.329Z,46.90
2022-08-17T17:14:02.258Z,47.53
2022-08-17T17:16:29.653Z,48.64
2022-08-17T17:19:12.857Z,49.91
2022-08-17T17:21:49.176Z,50.12
2022-08-17T17:24:49.961Z,50.59
2022-08-17T17:27:43.313Z,50.08
2022-08-17T17:30:24.340Z,51.18
2022-08-17T17:33:36.387Z,53.32
2022-08-17T17:36:29.333Z,53.43
2022-08-17T17:39:04.100Z,53.27
2022-08-17T17:42:07.866Z,54.11
2022-08-17T17:44:41.231Z,54.38
2022-08-17T17:47:10.153Z,54.71
2022-08-17T17:49:41.912Z,55.85
2022-08-17T17:52:26.334Z,56.54
2022-08-17T17:55:23.298Z,56.35
2022-08-17T17:58:00.947Z,57.26
2022-08-17T18:00:58.673Z,56.80
2022-08-17T18:03:45.098Z,57.44
2022-08-17T18:06:30.023Z,57.83
2022-08-17T18:09:19.350Z,58.68
2022-08-17T18:12:27.059Z,58.82
2022-08-17T18:15:14.179Z,58.75
2022-08-17T18:18:15.003Z,59.03
2022-08-17T18:20:53.884Z,59.86
2022-08-17T18:23:28.205Z,60.28
2022-08-17T18:25:57.203Z,60.19
2022-08-17T18:28:29.730Z,59.79
2022-08-17T18:31:21.928Z,59.95
2022-08-17T18:33:52.698Z,60.04
2022-08-17T18:36:33.451Z,60.32
2022-08-17T18:39:19.203Z,60.75
2022-08-17T18:41:51.247Z,61.57
2022-08-17T18:44:31.443Z,61.04
2022-08-17T18:47:13.943Z,61.90
2022-08-17T18:49:44.624Z,62.07
2022-08-17T18:52:32.235Z,62.41
2022-08-17T18:55:02.574Z,63.49
2022-08-17T18:57:35.194Z,63.74
2022-08-17T19:00:11.573Z,63.90
2022-08-17T19:03:02.195Z,63.49
2022-08-17T19:05:38.087Z,62.81
2022-08-17T19:08:27.601Z,63.17
2022-08-17T19:10:59.931Z,63.92
2022-08-17T19:13:42.958Z,63.95
2022-08-17T19:16:30.006Z,64.09
2022-08-17T19:19:10.101Z,63.91
2022-08-17T19:21:47.473Z,64.78
2022-08-17T19:24:22.122Z,64.23
2022-08-17T19:27:34.731Z,63.82
2022-08-17T19:30:13.769Z,63.83
2022-08-17T19:32:42.951Z,62.99
2022-08-17T19:35:17.376Z,63.91
2022-08-17T19:38:01.001Z,64.80
2022-08-17T19:40:54.520Z,64.44
2022-08-17T19:43:28.653Z,65.29
2022-08-17T19:46:18.184Z,65.34
2022-08-17T19:48:45.918Z,65.50
2022-08-17T19:51:41.153Z,65.32
2022-08-17T19:54:28.351Z,64.97
2022-08-17T19:57:06.821Z,64.42
2022-08-17T20:00:12.617Z,65.10
2022-08-17T20:02:47.239Z,65.18
2022-08-17T20:05:21.072Z,66.16
2022-08-17T20:07:53.133Z,66.68
2022-08-17T20:10:40.796Z,67.92
2022-08-17T20:13:13.998Z,68.03
2022-08-17T20:15:43.833Z,67.35
2022-08-17T20:18:21.238Z,66.95
2022-08-17T20:20:58.792Z,66.38
2022-08-17T20:23:30.895Z,68.03
2022-08-17T20:26:26.600Z,68.73
2022-08-17T20:29:14.369Z,68.95
2022-08-17T20:31:57.357Z,68.13
2022-08-17T20:34:33.604Z,69.09
2022-08-17T20:37:28.516Z,68.99
2022-08-17T20:39:56.427Z,68.29
2022-08-17T20:42:23.916Z,67.91
2022-08-17T20:45:13.376Z,68.35
2022-08-17T20:48:07.299Z,67.21
2022-08-17T20:50:36.920Z,67.45
2022-08-17T20:53:09.502Z,68.45
2022-08-17T20:55:52.387Z,68.88
2022-08-17T20:58:24.921Z,67.96
2022-08-17T21:01:01.741Z,68.71
2022-08-17T21:03:49.198Z,68.25
2022-08-17T21:06:21.219Z,68.14
2022-08-17T21:09:18.047Z,68.26
2022-08-17T21:12:04.185Z,68.48
2022-08-17T21:14:59.131Z,69.86
2022-08-17T21:17:38.403Z,69.39
2022-08-17T21:20:32.719Z,68.60
2022-08-17T21:23:16.562Z,69.02
2022-08-17T21:26:01.169Z,68.71
2022-08-17T21:29:29.572Z,68.38
2022-08-17T21:32:06.283Z,67.74
2022-08-17T21:35:06.515Z,69.13
2022-08-17T21:37:46.113Z,71.29
2022-08-17T21:40:13.559Z,71.43
2022-08-17T21:42:50.706Z,70.82
2022-08-17T21:45:30.621Z,71.14
2022-08-17T21:48:16.853Z,70.42
2022-08-17T21:50:56.136Z,69.16
2022-08-17T21:53:48.863Z,69.00
2022-08-17T21:56:38.965Z,70.20
2022-08-17T21:59:21.357Z,69.87
2022-08-17T22:01:58.773Z,70.63
2022-08-17T22:04:31.247Z,70.60
2022-08-17T22:07:01.606Z,70.18
2022-08-17T22:09:33.077Z,70.90
2022-08-17T22:12:04.696Z,70.43
2022-08-17T22:14:52.867Z,70.92
2022-08-17T22:17:26.882Z,71.89
2022-08-17T22:20:17.689Z,71.80
2022-08-17T22:23:12.974Z,71.54
2022-08-17T22:26:00.274Z,70.55
2022-08-17T22:28:53.495Z,71.41
2022-08-17T22:31:49.654Z,71.38
2022-08-17T22:34:17.567Z,71.41
2022-08-17T22:36:46.086Z,71.06
2022-08-17T22:39:13.581Z,70.87
2022-08-17T22:41:54.152Z,71.70
2022-08-17T22:44:23.721Z,71.56
2022-08-17T22:46:53.665Z,72.00
2022-08-17T22:49:53.467Z,71.74
2022-08-17T22:52:21.985Z,71.15
2022-08-17T22:55:09.424Z,71.91
2022-08-17T22:58:03.658Z,72.50
2022-08-17T23:00:51.757Z,71.42
2022-08-17T23:03:23.040Z,72.47
2022-08-17T23:06:10.031Z,72.48
2022-08-17T23:08:55.219Z,71.31
2022-08-17T23:11:36.811Z,71.78
2022-08-17T23:14:15.939Z,72.26
2022-08-17T23:16:43.318Z,70.99
2022-08-17T23:19:12.919Z,71.50
2022-08-17T23:21:40.861Z,72.05
2022-08-17T23:24:09.268Z,71.72
2022-08-17T23:26:39.305Z,71.65
2022-08-17T23:29:08.087Z,71.60
2022-08-17T23:31:37.913Z,70.39
2022-08-17T23:34:10.838Z,70.44
2022-08-17T23:36:39.446Z,71.34
2022-08-17T23:39:07.832Z,71.36
2022-08-17T23:41:40.229Z,72.20
2022-08-17T23:44:08.195Z,71.88
2022-08-17T23:46:36.432Z,71.67
2022-08-17T23:49:07.000Z,72.36
2022-08-17T23:51:42.642Z,72.26
2022-08-17T23:54:25.573Z,72.58
2022-08-17T23:56:53.858Z,73.07
2022-08-17T23:59:23.867Z,72.14
